sensor_id;sensor_type;location;lat;lon;timestamp;temperature;humidity
71082;SHT31;58740;50.672;18.690;2022-11-12T00:01:11;7.12;78.66
71082;SHT31;58740;50.672;18.690;2022-11-12T00:03:39;7.05;78.83
71082;SHT31;58740;50.672;18.690;2022-11-12T00:06:07;7.00;78.90
71082;SHT31;58740;50.672;18.690;2022-11-12T00:08:35;6.98;78.80
71082;SHT31;58740;50.672;18.690;2022-11-12T00:11:03;6.97;78.57
71082;SHT31;58740;50.672;18.690;2022-11-12T00:13:31;6.93;78.70
71082;SHT31;58740;50.672;18.690;2022-11-12T00:15:59;6.90;78.56
71082;SHT31;58740;50.672;18.690;2022-11-12T00:18:26;6.87;78.71
71082;SHT31;58740;50.672;18.690;2022-11-12T00:20:55;6.87;78.80
71082;SHT31;58740;50.672;18.690;2022-11-12T00:23:23;6.85;78.81
71082;SHT31;58740;50.672;18.690;2022-11-12T00:25:57;6.81;78.56
71082;SHT31;58740;50.672;18.690;2022-11-12T00:28:27;6.72;78.51
71082;SHT31;58740;50.672;18.690;2022-11-12T00:31:05;6.66;78.70
71082;SHT31;58740;50.672;18.690;2022-11-12T00:33:38;6.64;78.70
71082;SHT31;58740;50.672;18.690;2022-11-12T00:36:08;6.66;78.51
71082;SHT31;58740;50.672;18.690;2022-11-12T00:38:37;6.61;78.41
71082;SHT31;58740;50.672;18.690;2022-11-12T00:41:06;6.57;78.48
71082;SHT31;58740;50.672;18.690;2022-11-12T00:43:34;6.52;78.67
71082;SHT31;58740;50.672;18.690;2022-11-12T00:46:01;6.50;78.56
71082;SHT31;58740;50.672;18.690;2022-11-12T00:48:29;6.46;78.52
71082;SHT31;58740;50.672;18.690;2022-11-12T00:50:58;6.42;78.38
71082;SHT31;58740;50.672;18.690;2022-11-12T00:53:27;6.39;78.45
71082;SHT31;58740;50.672;18.690;2022-11-12T00:56:02;6.37;78.52
71082;SHT31;58740;50.672;18.690;2022-11-12T00:58:33;6.34;78.42
71082;SHT31;58740;50.672;18.690;2022-11-12T01:01:03;6.30;78.38
71082;SHT31;58740;50.672;18.690;2022-11-12T01:03:35;6.27;78.33
71082;SHT31;58740;50.672;18.690;2022-11-12T01:06:08;6.25;78.11
71082;SHT31;58740;50.672;18.690;2022-11-12T01:08:40;6.20;78.20
71082;SHT31;58740;50.672;18.690;2022-11-12T01:13:44;6.10;78.28
71082;SHT31;58740;50.672;18.690;2022-11-12T01:16:15;6.08;78.35
71082;SHT31;58740;50.672;18.690;2022-11-12T01:18:50;6.06;78.24
71082;SHT31;58740;50.672;18.690;2022-11-12T01:21:23;6.03;78.28
71082;SHT31;58740;50.672;18.690;2022-11-12T01:23:57;5.99;78.11
71082;SHT31;58740;50.672;18.690;2022-11-12T01:26:28;5.92;78.15
71082;SHT31;58740;50.672;18.690;2022-11-12T01:28:56;5.87;78.37
71082;SHT31;58740;50.672;18.690;2022-11-12T01:31:25;5.88;78.39
71082;SHT31;58740;50.672;18.690;2022-11-12T01:33:57;5.88;78.22
71082;SHT31;58740;50.672;18.690;2022-11-12T01:36:30;5.86;78.23
71082;SHT31;58740;50.672;18.690;2022-11-12T01:39:05;5.83;78.25
71082;SHT31;58740;50.672;18.690;2022-11-12T01:41:35;5.81;78.12
71082;SHT31;58740;50.672;18.690;2022-11-12T01:44:14;5.79;77.99
71082;SHT31;58740;50.672;18.690;2022-11-12T01:49:26;5.73;77.90
71082;SHT31;58740;50.672;18.690;2022-11-12T01:52:01;5.69;77.80
71082;SHT31;58740;50.672;18.690;2022-11-12T01:54:43;5.63;77.93
71082;SHT31;58740;50.672;18.690;2022-11-12T01:57:16;5.60;78.00
71082;SHT31;58740;50.672;18.690;2022-11-12T01:59:52;5.60;77.91
71082;SHT31;58740;50.672;18.690;2022-11-12T02:02:26;5.58;77.91
71082;SHT31;58740;50.672;18.690;2022-11-12T02:04:54;5.56;77.99
71082;SHT31;58740;50.672;18.690;2022-11-12T02:07:23;5.58;78.11
71082;SHT31;58740;50.672;18.690;2022-11-12T02:09:52;5.59;78.08
71082;SHT31;58740;50.672;18.690;2022-11-12T02:12:20;5.61;78.00
71082;SHT31;58740;50.672;18.690;2022-11-12T02:15:07;5.60;77.89
71082;SHT31;58740;50.672;18.690;2022-11-12T02:17:35;5.57;77.93
71082;SHT31;58740;50.672;18.690;2022-11-12T02:20:03;5.52;77.98
71082;SHT31;58740;50.672;18.690;2022-11-12T02:22:34;5.49;77.84
71082;SHT31;58740;50.672;18.690;2022-11-12T02:25:02;5.44;77.92
71082;SHT31;58740;50.672;18.690;2022-11-12T02:27:31;5.42;77.85
71082;SHT31;58740;50.672;18.690;2022-11-12T02:29:59;5.41;77.80
71082;SHT31;58740;50.672;18.690;2022-11-12T02:32:26;5.41;77.76
71082;SHT31;58740;50.672;18.690;2022-11-12T02:34:54;5.37;77.70
71082;SHT31;58740;50.672;18.690;2022-11-12T02:37:22;5.34;77.83
71082;SHT31;58740;50.672;18.690;2022-11-12T02:39:49;5.31;77.73
71082;SHT31;58740;50.672;18.690;2022-11-12T02:42:17;5.26;77.55
71082;SHT31;58740;50.672;18.690;2022-11-12T02:44:45;5.21;77.67
71082;SHT31;58740;50.672;18.690;2022-11-12T02:47:13;5.16;77.78
71082;SHT31;58740;50.672;18.690;2022-11-12T02:49:40;5.14;77.78
71082;SHT31;58740;50.672;18.690;2022-11-12T02:52:08;5.10;77.76
71082;SHT31;58740;50.672;18.690;2022-11-12T02:54:36;5.07;77.68
71082;SHT31;58740;50.672;18.690;2022-11-12T02:57:03;5.05;77.75
71082;SHT31;58740;50.672;18.690;2022-11-12T02:59:31;5.01;77.73
71082;SHT31;58740;50.672;18.690;2022-11-12T03:01:58;4.98;77.71
71082;SHT31;58740;50.672;18.690;2022-11-12T03:04:26;4.97;77.66
71082;SHT31;58740;50.672;18.690;2022-11-12T03:06:54;4.95;77.73
71082;SHT31;58740;50.672;18.690;2022-11-12T03:09:22;4.95;77.63
71082;SHT31;58740;50.672;18.690;2022-11-12T03:11:50;4.92;77.44
71082;SHT31;58740;50.672;18.690;2022-11-12T03:14:17;4.86;77.42
71082;SHT31;58740;50.672;18.690;2022-11-12T03:16:45;4.81;77.43
71082;SHT31;58740;50.672;18.690;2022-11-12T03:19:13;4.76;77.49
71082;SHT31;58740;50.672;18.690;2022-11-12T03:21:41;4.74;77.67
71082;SHT31;58740;50.672;18.690;2022-11-12T03:24:08;4.71;77.55
71082;SHT31;58740;50.672;18.690;2022-11-12T03:26:36;4.67;77.74
71082;SHT31;58740;50.672;18.690;2022-11-12T03:29:04;4.66;77.69
71082;SHT31;58740;50.672;18.690;2022-11-12T03:31:31;4.67;77.66
71082;SHT31;58740;50.672;18.690;2022-11-12T03:33:59;4.70;77.62
71082;SHT31;58740;50.672;18.690;2022-11-12T03:36:27;4.70;77.50
71082;SHT31;58740;50.672;18.690;2022-11-12T03:38:55;4.68;77.46
71082;SHT31;58740;50.672;18.690;2022-11-12T03:41:22;4.67;77.46
71082;SHT31;58740;50.672;18.690;2022-11-12T03:43:50;4.67;77.41
71082;SHT31;58740;50.672;18.690;2022-11-12T03:46:18;4.69;77.32
71082;SHT31;58740;50.672;18.690;2022-11-12T03:48:46;4.70;77.25
71082;SHT31;58740;50.672;18.690;2022-11-12T03:51:13;4.68;77.13
71082;SHT31;58740;50.672;18.690;2022-11-12T03:53:42;4.63;77.10
71082;SHT31;58740;50.672;18.690;2022-11-12T03:56:10;4.55;77.00
71082;SHT31;58740;50.672;18.690;2022-11-12T03:58:38;4.49;77.24
71082;SHT31;58740;50.672;18.690;2022-11-12T04:01:06;4.45;77.32
71082;SHT31;58740;50.672;18.690;2022-11-12T04:03:33;4.41;77.42
71082;SHT31;58740;50.672;18.690;2022-11-12T04:06:01;4.40;77.45
71082;SHT31;58740;50.672;18.690;2022-11-12T04:08:48;4.43;77.33
71082;SHT31;58740;50.672;18.690;2022-11-12T04:11:16;4.47;77.28
71082;SHT31;58740;50.672;18.690;2022-11-12T04:13:43;4.51;77.20
71082;SHT31;58740;50.672;18.690;2022-11-12T04:16:15;4.51;77.02
71082;SHT31;58740;50.672;18.690;2022-11-12T04:19:05;4.45;76.94
71082;SHT31;58740;50.672;18.690;2022-11-12T04:21:59;4.37;77.03
71082;SHT31;58740;50.672;18.690;2022-11-12T04:24:40;4.31;77.10
71082;SHT31;58740;50.672;18.690;2022-11-12T04:27:31;4.26;77.20
71082;SHT31;58740;50.672;18.690;2022-11-12T04:30:00;4.23;77.18
71082;SHT31;58740;50.672;18.690;2022-11-12T04:32:46;4.18;77.11
71082;SHT31;58740;50.672;18.690;2022-11-12T04:35:17;4.17;77.20
71082;SHT31;58740;50.672;18.690;2022-11-12T04:37:45;4.18;77.21
71082;SHT31;58740;50.672;18.690;2022-11-12T04:40:22;4.19;77.27
71082;SHT31;58740;50.672;18.690;2022-11-12T04:43:11;4.20;77.29
71082;SHT31;58740;50.672;18.690;2022-11-12T04:46:03;4.18;77.29
71082;SHT31;58740;50.672;18.690;2022-11-12T04:48:31;4.17;77.31
71082;SHT31;58740;50.672;18.690;2022-11-12T04:51:00;4.12;77.26
71082;SHT31;58740;50.672;18.690;2022-11-12T04:53:51;4.07;77.32
71082;SHT31;58740;50.672;18.690;2022-11-12T04:56:18;4.04;77.40
71082;SHT31;58740;50.672;18.690;2022-11-12T04:58:46;3.99;77.44
71082;SHT31;58740;50.672;18.690;2022-11-12T05:01:14;3.98;77.53
71082;SHT31;58740;50.672;18.690;2022-11-12T05:03:42;4.00;77.50
71082;SHT31;58740;50.672;18.690;2022-11-12T05:06:09;4.01;77.43
71082;SHT31;58740;50.672;18.690;2022-11-12T05:09:01;4.02;77.36
71082;SHT31;58740;50.672;18.690;2022-11-12T05:11:28;4.01;77.30
71082;SHT31;58740;50.672;18.690;2022-11-12T05:13:56;4.02;77.27
71082;SHT31;58740;50.672;18.690;2022-11-12T05:16:24;4.01;77.17
71082;SHT31;58740;50.672;18.690;2022-11-12T05:18:51;3.97;77.02
71082;SHT31;58740;50.672;18.690;2022-11-12T05:21:19;3.91;77.08
71082;SHT31;58740;50.672;18.690;2022-11-12T05:24:10;3.85;77.16
71082;SHT31;58740;50.672;18.690;2022-11-12T05:26:58;3.81;77.28
71082;SHT31;58740;50.672;18.690;2022-11-12T05:29:25;3.83;77.40
71082;SHT31;58740;50.672;18.690;2022-11-12T05:31:53;3.88;77.15
71082;SHT31;58740;50.672;18.690;2022-11-12T05:34:21;3.91;77.10
71082;SHT31;58740;50.672;18.690;2022-11-12T05:36:49;3.92;76.88
71082;SHT31;58740;50.672;18.690;2022-11-12T05:39:17;3.87;76.82
71082;SHT31;58740;50.672;18.690;2022-11-12T05:41:45;3.85;76.89
71082;SHT31;58740;50.672;18.690;2022-11-12T05:44:32;3.80;76.94
71082;SHT31;58740;50.672;18.690;2022-11-12T05:47:00;3.76;77.17
71082;SHT31;58740;50.672;18.690;2022-11-12T05:49:28;3.75;77.18
71082;SHT31;58740;50.672;18.690;2022-11-12T05:51:56;3.72;77.23
71082;SHT31;58740;50.672;18.690;2022-11-12T05:54:24;3.73;77.20
71082;SHT31;58740;50.672;18.690;2022-11-12T05:56:51;3.76;77.07
71082;SHT31;58740;50.672;18.690;2022-11-12T05:59:20;3.77;76.97
71082;SHT31;58740;50.672;18.690;2022-11-12T06:01:48;3.76;77.04
71082;SHT31;58740;50.672;18.690;2022-11-12T06:04:16;3.82;77.19
71082;SHT31;58740;50.672;18.690;2022-11-12T06:06:44;3.86;77.09
71082;SHT31;58740;50.672;18.690;2022-11-12T06:09:12;3.85;77.10
71082;SHT31;58740;50.672;18.690;2022-11-12T06:11:40;3.83;77.12
71082;SHT31;58740;50.672;18.690;2022-11-12T06:14:07;3.81;77.19
71082;SHT31;58740;50.672;18.690;2022-11-12T06:16:35;3.80;77.24
71082;SHT31;58740;50.672;18.690;2022-11-12T06:19:03;3.77;77.30
71082;SHT31;58740;50.672;18.690;2022-11-12T06:21:31;3.77;77.33
71082;SHT31;58740;50.672;18.690;2022-11-12T06:23:59;3.76;77.33
71082;SHT31;58740;50.672;18.690;2022-11-12T06:26:27;3.76;77.40
71082;SHT31;58740;50.672;18.690;2022-11-12T06:28:57;3.77;77.54
71082;SHT31;58740;50.672;18.690;2022-11-12T06:31:24;3.79;77.59
71082;SHT31;58740;50.672;18.690;2022-11-12T06:33:52;3.83;77.63
71082;SHT31;58740;50.672;18.690;2022-11-12T06:36:20;3.83;77.65
71082;SHT31;58740;50.672;18.690;2022-11-12T06:38:48;3.86;77.73
71082;SHT31;58740;50.672;18.690;2022-11-12T06:41:16;3.92;77.79
71082;SHT31;58740;50.672;18.690;2022-11-12T06:43:44;3.97;77.84
71082;SHT31;58740;50.672;18.690;2022-11-12T06:46:12;4.05;77.85
71082;SHT31;58740;50.672;18.690;2022-11-12T06:48:43;4.13;77.84
71082;SHT31;58740;50.672;18.690;2022-11-12T06:51:11;4.20;77.86
71082;SHT31;58740;50.672;18.690;2022-11-12T06:53:45;4.24;77.90
71082;SHT31;58740;50.672;18.690;2022-11-12T06:56:14;4.27;77.91
71082;SHT31;58740;50.672;18.690;2022-11-12T06:58:42;4.30;77.93
71082;SHT31;58740;50.672;18.690;2022-11-12T07:01:11;4.30;78.03
71082;SHT31;58740;50.672;18.690;2022-11-12T07:03:42;4.32;78.10
71082;SHT31;58740;50.672;18.690;2022-11-12T07:06:12;4.37;78.12
71082;SHT31;58740;50.672;18.690;2022-11-12T07:08:46;4.40;78.15
71082;SHT31;58740;50.672;18.690;2022-11-12T07:11:16;4.46;78.25
71082;SHT31;58740;50.672;18.690;2022-11-12T07:13:46;4.54;78.25
71082;SHT31;58740;50.672;18.690;2022-11-12T07:16:14;4.62;78.26
71082;SHT31;58740;50.672;18.690;2022-11-12T07:18:45;4.69;78.27
71082;SHT31;58740;50.672;18.690;2022-11-12T07:21:16;4.75;78.19
71082;SHT31;58740;50.672;18.690;2022-11-12T07:23:46;4.79;78.27
71082;SHT31;58740;50.672;18.690;2022-11-12T07:28:48;4.92;78.51
71082;SHT31;58740;50.672;18.690;2022-11-12T07:31:19;5.01;78.68
71082;SHT31;58740;50.672;18.690;2022-11-12T07:33:47;5.13;78.71
71082;SHT31;58740;50.672;18.690;2022-11-12T07:36:17;5.24;78.77
71082;SHT31;58740;50.672;18.690;2022-11-12T07:38:49;5.35;78.82
71082;SHT31;58740;50.672;18.690;2022-11-12T07:41:20;5.47;78.97
71082;SHT31;58740;50.672;18.690;2022-11-12T07:43:51;5.56;79.37
71082;SHT31;58740;50.672;18.690;2022-11-12T07:46:21;5.64;79.71
71082;SHT31;58740;50.672;18.690;2022-11-12T07:48:52;5.74;79.76
71082;SHT31;58740;50.672;18.690;2022-11-12T07:51:22;5.86;79.67
71082;SHT31;58740;50.672;18.690;2022-11-12T07:53:53;6.00;79.66
71082;SHT31;58740;50.672;18.690;2022-11-12T07:56:26;6.14;79.69
71082;SHT31;58740;50.672;18.690;2022-11-12T07:58:55;6.26;79.56
71082;SHT31;58740;50.672;18.690;2022-11-12T08:04:03;6.49;79.54
71082;SHT31;58740;50.672;18.690;2022-11-12T08:06:36;6.58;79.71
71082;SHT31;58740;50.672;18.690;2022-11-12T08:09:05;6.69;79.60
71082;SHT31;58740;50.672;18.690;2022-11-12T08:11:36;6.81;79.40
71082;SHT31;58740;50.672;18.690;2022-11-12T08:14:04;6.92;79.52
71082;SHT31;58740;50.672;18.690;2022-11-12T08:16:32;7.03;79.44
71082;SHT31;58740;50.672;18.690;2022-11-12T08:19:00;7.14;79.24
71082;SHT31;58740;50.672;18.690;2022-11-12T08:21:28;7.22;79.04
71082;SHT31;58740;50.672;18.690;2022-11-12T08:23:56;7.28;78.99
71082;SHT31;58740;50.672;18.690;2022-11-12T08:26:23;7.34;78.92
71082;SHT31;58740;50.672;18.690;2022-11-12T08:28:52;7.42;79.13
71082;SHT31;58740;50.672;18.690;2022-11-12T08:31:21;7.46;79.14
71082;SHT31;58740;50.672;18.690;2022-11-12T08:33:50;7.51;78.71
71082;SHT31;58740;50.672;18.690;2022-11-12T08:36:17;7.57;78.41
71082;SHT31;58740;50.672;18.690;2022-11-12T08:38:45;7.67;78.42
71082;SHT31;58740;50.672;18.690;2022-11-12T08:41:13;7.77;78.27
71082;SHT31;58740;50.672;18.690;2022-11-12T08:43:42;7.84;78.26
71082;SHT31;58740;50.672;18.690;2022-11-12T08:46:10;7.90;77.93
71082;SHT31;58740;50.672;18.690;2022-11-12T08:48:38;7.93;77.87
71082;SHT31;58740;50.672;18.690;2022-11-12T08:51:06;7.97;77.69
71082;SHT31;58740;50.672;18.690;2022-11-12T08:53:34;8.02;77.62
71082;SHT31;58740;50.672;18.690;2022-11-12T08:56:02;8.07;77.63
71082;SHT31;58740;50.672;18.690;2022-11-12T08:58:30;8.16;77.74
71082;SHT31;58740;50.672;18.690;2022-11-12T09:01:02;8.22;77.41
71082;SHT31;58740;50.672;18.690;2022-11-12T09:03:32;8.28;77.55
71082;SHT31;58740;50.672;18.690;2022-11-12T09:06:01;8.34;77.67
71082;SHT31;58740;50.672;18.690;2022-11-12T09:08:31;8.38;77.44
71082;SHT31;58740;50.672;18.690;2022-11-12T09:11:02;8.42;77.56
71082;SHT31;58740;50.672;18.690;2022-11-12T09:13:31;8.45;77.38
71082;SHT31;58740;50.672;18.690;2022-11-12T09:16:04;8.49;77.33
71082;SHT31;58740;50.672;18.690;2022-11-12T09:18:34;8.53;77.38
71082;SHT31;58740;50.672;18.690;2022-11-12T09:21:03;8.60;77.66
71082;SHT31;58740;50.672;18.690;2022-11-12T09:23:34;8.67;77.41
71082;SHT31;58740;50.672;18.690;2022-11-12T09:26:02;8.71;77.16
71082;SHT31;58740;50.672;18.690;2022-11-12T09:28:31;8.73;77.17
71082;SHT31;58740;50.672;18.690;2022-11-12T09:31:00;8.78;77.08
71082;SHT31;58740;50.672;18.690;2022-11-12T09:33:29;8.79;76.85
71082;SHT31;58740;50.672;18.690;2022-11-12T09:36:00;8.82;76.83
71082;SHT31;58740;50.672;18.690;2022-11-12T09:38:29;8.87;76.87
71082;SHT31;58740;50.672;18.690;2022-11-12T09:43:49;9.01;76.80
71082;SHT31;58740;50.672;18.690;2022-11-12T09:52:03;9.11;76.57
71082;SHT31;58740;50.672;18.690;2022-11-12T09:54:40;9.14;76.85
71082;SHT31;58740;50.672;18.690;2022-11-12T09:57:10;9.15;76.83
71082;SHT31;58740;50.672;18.690;2022-11-12T09:59:40;9.17;76.72
71082;SHT31;58740;50.672;18.690;2022-11-12T10:10:52;9.38;76.69
71082;SHT31;58740;50.672;18.690;2022-11-12T10:22:13;9.48;76.38
71082;SHT31;58740;50.672;18.690;2022-11-12T10:25:08;9.45;76.45
71082;SHT31;58740;50.672;18.690;2022-11-12T10:27:42;9.47;76.55
71082;SHT31;58740;50.672;18.690;2022-11-12T10:30:15;9.54;76.71
71082;SHT31;58740;50.672;18.690;2022-11-12T10:32:51;9.59;76.61
71082;SHT31;58740;50.672;18.690;2022-11-12T10:35:20;9.64;76.64
71082;SHT31;58740;50.672;18.690;2022-11-12T10:37:54;9.70;76.68
71082;SHT31;58740;50.672;18.690;2022-11-12T10:45:44;9.80;76.89
71082;SHT31;58740;50.672;18.690;2022-11-12T10:50:55;9.90;77.04
71082;SHT31;58740;50.672;18.690;2022-11-12T10:53:34;9.95;77.11
71082;SHT31;58740;50.672;18.690;2022-11-12T10:56:21;10.04;77.05
71082;SHT31;58740;50.672;18.690;2022-11-12T11:01:55;10.15;76.40
71082;SHT31;58740;50.672;18.690;2022-11-12T11:04:32;10.17;76.20
71082;SHT31;58740;50.672;18.690;2022-11-12T11:07:22;10.18;76.15
71082;SHT31;58740;50.672;18.690;2022-11-12T11:09:53;10.21;76.33
71082;SHT31;58740;50.672;18.690;2022-11-12T11:12:28;10.23;76.30
71082;SHT31;58740;50.672;18.690;2022-11-12T11:15:06;10.25;76.15
71082;SHT31;58740;50.672;18.690;2022-11-12T11:17:47;10.29;75.88
71082;SHT31;58740;50.672;18.690;2022-11-12T11:20:27;10.31;75.86
71082;SHT31;58740;50.672;18.690;2022-11-12T11:23:21;10.35;75.80
71082;SHT31;58740;50.672;18.690;2022-11-12T11:36:20;10.41;75.82
71082;SHT31;58740;50.672;18.690;2022-11-12T11:39:33;10.44;75.81
71082;SHT31;58740;50.672;18.690;2022-11-12T11:50:38;10.55;75.14
71082;SHT31;58740;50.672;18.690;2022-11-12T11:56:42;10.54;74.99
71082;SHT31;58740;50.672;18.690;2022-11-12T12:00:00;10.52;74.95
71082;SHT31;58740;50.672;18.690;2022-11-12T12:11:35;10.61;74.76
71082;SHT31;58740;50.672;18.690;2022-11-12T12:14:20;10.66;74.71
71082;SHT31;58740;50.672;18.690;2022-11-12T12:23:24;10.70;74.59
71082;SHT31;58740;50.672;18.690;2022-11-12T12:26:00;10.69;74.61
71082;SHT31;58740;50.672;18.690;2022-11-12T12:28:49;10.70;74.64
71082;SHT31;58740;50.672;18.690;2022-11-12T12:31:28;10.71;74.57
71082;SHT31;58740;50.672;18.690;2022-11-12T12:34:03;10.75;74.56
71082;SHT31;58740;50.672;18.690;2022-11-12T12:36:45;10.78;74.38
71082;SHT31;58740;50.672;18.690;2022-11-12T12:39:39;10.82;74.26
71082;SHT31;58740;50.672;18.690;2022-11-12T12:42:26;10.86;74.23
71082;SHT31;58740;50.672;18.690;2022-11-12T12:45:50;10.88;74.27
71082;SHT31;58740;50.672;18.690;2022-11-12T12:48:04;10.87;74.18
71082;SHT31;58740;50.672;18.690;2022-11-12T12:50:40;10.87;74.31
71082;SHT31;58740;50.672;18.690;2022-11-12T12:53:16;10.86;74.12
71082;SHT31;58740;50.672;18.690;2022-11-12T12:55:59;10.88;74.22
71082;SHT31;58740;50.672;18.690;2022-11-12T13:03:52;10.92;74.05
71082;SHT31;58740;50.672;18.690;2022-11-12T13:06:34;10.95;74.24
71082;SHT31;58740;50.672;18.690;2022-11-12T13:33:01;10.87;73.78
71082;SHT31;58740;50.672;18.690;2022-11-12T13:35:37;10.84;73.80
71082;SHT31;58740;50.672;18.690;2022-11-12T13:44:11;10.78;73.94
71082;SHT31;58740;50.672;18.690;2022-11-12T13:46:42;10.78;73.89
71082;SHT31;58740;50.672;18.690;2022-11-12T13:49:13;10.79;73.93
71082;SHT31;58740;50.672;18.690;2022-11-12T13:51:44;10.81;73.98
71082;SHT31;58740;50.672;18.690;2022-11-12T13:54:35;10.81;73.99
71082;SHT31;58740;50.672;18.690;2022-11-12T14:00:25;10.78;74.01
71082;SHT31;58740;50.672;18.690;2022-11-12T14:02:44;10.76;74.15
71082;SHT31;58740;50.672;18.690;2022-11-12T14:05:31;10.73;74.24
71082;SHT31;58740;50.672;18.690;2022-11-12T14:11:29;10.70;74.36
71082;SHT31;58740;50.672;18.690;2022-11-12T14:14:09;10.71;74.46
71082;SHT31;58740;50.672;18.690;2022-11-12T14:23:07;10.63;74.59
71082;SHT31;58740;50.672;18.690;2022-11-12T14:25:47;10.59;74.71
71082;SHT31;58740;50.672;18.690;2022-11-12T14:28:29;10.57;74.75
71082;SHT31;58740;50.672;18.690;2022-11-12T14:31:01;10.56;74.87
71082;SHT31;58740;50.672;18.690;2022-11-12T14:33:31;10.55;74.93
71082;SHT31;58740;50.672;18.690;2022-11-12T14:36:00;10.53;74.89
71082;SHT31;58740;50.672;18.690;2022-11-12T14:38:33;10.46;75.28
71082;SHT31;58740;50.672;18.690;2022-11-12T14:43:47;10.26;75.88
71082;SHT31;58740;50.672;18.690;2022-11-12T14:46:45;10.20;76.09
71082;SHT31;58740;50.672;18.690;2022-11-12T14:49:21;10.16;76.16
71082;SHT31;58740;50.672;18.690;2022-11-12T14:54:52;10.11;76.30
71082;SHT31;58740;50.672;18.690;2022-11-12T14:57:25;10.08;76.31
71082;SHT31;58740;50.672;18.690;2022-11-12T14:59:55;10.03;76.39
71082;SHT31;58740;50.672;18.690;2022-11-12T15:02:25;9.99;76.50
71082;SHT31;58740;50.672;18.690;2022-11-12T15:05:17;9.91;76.74
71082;SHT31;58740;50.672;18.690;2022-11-12T15:08:04;9.81;77.02
71082;SHT31;58740;50.672;18.690;2022-11-12T15:10:39;9.72;77.26
71082;SHT31;58740;50.672;18.690;2022-11-12T15:13:11;9.64;77.45
71082;SHT31;58740;50.672;18.690;2022-11-12T15:18:27;9.56;77.61
71082;SHT31;58740;50.672;18.690;2022-11-12T15:23:47;9.42;77.95
71082;SHT31;58740;50.672;18.690;2022-11-12T15:26:32;9.35;78.06
71082;SHT31;58740;50.672;18.690;2022-11-12T15:29:18;9.29;78.25
71082;SHT31;58740;50.672;18.690;2022-11-12T15:37:01;9.23;78.28
71082;SHT31;58740;50.672;18.690;2022-11-12T15:39:58;9.19;78.38
71082;SHT31;58740;50.672;18.690;2022-11-12T15:42:38;9.13;78.46
71082;SHT31;58740;50.672;18.690;2022-11-12T15:47:43;9.01;78.58
71082;SHT31;58740;50.672;18.690;2022-11-12T15:52:39;8.87;78.43
71082;SHT31;58740;50.672;18.690;2022-11-12T15:55:08;8.84;78.32
71082;SHT31;58740;50.672;18.690;2022-11-12T15:57:42;8.78;78.64
71082;SHT31;58740;50.672;18.690;2022-11-12T16:00:18;8.76;78.50
71082;SHT31;58740;50.672;18.690;2022-11-12T16:02:51;8.72;78.30
71082;SHT31;58740;50.672;18.690;2022-11-12T16:05:25;8.69;78.15
71082;SHT31;58740;50.672;18.690;2022-11-12T16:07:53;8.64;78.12
71082;SHT31;58740;50.672;18.690;2022-11-12T16:10:21;8.58;78.12
71082;SHT31;58740;50.672;18.690;2022-11-12T16:12:49;8.55;78.25
71082;SHT31;58740;50.672;18.690;2022-11-12T16:15:20;8.48;78.26
71082;SHT31;58740;50.672;18.690;2022-11-12T16:17:52;8.46;78.24
71082;SHT31;58740;50.672;18.690;2022-11-12T16:20:23;8.43;78.33
71082;SHT31;58740;50.672;18.690;2022-11-12T16:22:58;8.41;78.08
71082;SHT31;58740;50.672;18.690;2022-11-12T16:25:29;8.39;78.00
71082;SHT31;58740;50.672;18.690;2022-11-12T16:28:00;8.34;78.01
71082;SHT31;58740;50.672;18.690;2022-11-12T16:30:29;8.29;77.76
71082;SHT31;58740;50.672;18.690;2022-11-12T16:32:59;8.20;77.76
71082;SHT31;58740;50.672;18.690;2022-11-12T16:35:28;8.15;77.87
71082;SHT31;58740;50.672;18.690;2022-11-12T16:38:01;8.09;77.79
71082;SHT31;58740;50.672;18.690;2022-11-12T16:40:29;8.03;77.69
71082;SHT31;58740;50.672;18.690;2022-11-12T16:42:58;7.98;77.70
71082;SHT31;58740;50.672;18.690;2022-11-12T16:45:30;7.92;77.59
71082;SHT31;58740;50.672;18.690;2022-11-12T16:48:18;7.86;77.54
71082;SHT31;58740;50.672;18.690;2022-11-12T16:50:48;7.78;77.50
71082;SHT31;58740;50.672;18.690;2022-11-12T16:53:16;7.71;77.54
71082;SHT31;58740;50.672;18.690;2022-11-12T16:55:43;7.65;77.54
71082;SHT31;58740;50.672;18.690;2022-11-12T16:58:12;7.57;77.58
71082;SHT31;58740;50.672;18.690;2022-11-12T17:00:42;7.52;77.71
71082;SHT31;58740;50.672;18.690;2022-11-12T17:03:13;7.49;77.86
71082;SHT31;58740;50.672;18.690;2022-11-12T17:05:41;7.47;77.65
71082;SHT31;58740;50.672;18.690;2022-11-12T17:08:09;7.42;77.75
71082;SHT31;58740;50.672;18.690;2022-11-12T17:10:37;7.39;77.71
71082;SHT31;58740;50.672;18.690;2022-11-12T17:13:05;7.33;77.83
71082;SHT31;58740;50.672;18.690;2022-11-12T17:15:33;7.30;77.99
71082;SHT31;58740;50.672;18.690;2022-11-12T17:18:01;7.30;78.00
71082;SHT31;58740;50.672;18.690;2022-11-12T17:20:29;7.27;77.80
71082;SHT31;58740;50.672;18.690;2022-11-12T17:22:58;7.22;77.63
71082;SHT31;58740;50.672;18.690;2022-11-12T17:25:26;7.21;77.89
71082;SHT31;58740;50.672;18.690;2022-11-12T17:27:54;7.21;78.36
71082;SHT31;58740;50.672;18.690;2022-11-12T17:30:21;7.22;78.18
71082;SHT31;58740;50.672;18.690;2022-11-12T17:32:49;7.22;78.09
71082;SHT31;58740;50.672;18.690;2022-11-12T17:35:17;7.21;78.03
71082;SHT31;58740;50.672;18.690;2022-11-12T17:37:44;7.18;77.89
71082;SHT31;58740;50.672;18.690;2022-11-12T17:40:12;7.14;77.79
71082;SHT31;58740;50.672;18.690;2022-11-12T17:42:40;7.07;77.74
71082;SHT31;58740;50.672;18.690;2022-11-12T17:45:07;7.00;77.86
71082;SHT31;58740;50.672;18.690;2022-11-12T17:47:36;6.96;77.87
71082;SHT31;58740;50.672;18.690;2022-11-12T17:50:07;6.94;77.79
71082;SHT31;58740;50.672;18.690;2022-11-12T17:52:35;6.94;77.73
71082;SHT31;58740;50.672;18.690;2022-11-12T17:55:03;6.90;77.79
71082;SHT31;58740;50.672;18.690;2022-11-12T17:57:31;6.89;77.64
71082;SHT31;58740;50.672;18.690;2022-11-12T17:59:59;6.87;77.58
71082;SHT31;58740;50.672;18.690;2022-11-12T18:02:26;6.83;77.47
71082;SHT31;58740;50.672;18.690;2022-11-12T18:04:54;6.79;77.56
71082;SHT31;58740;50.672;18.690;2022-11-12T18:07:22;6.73;77.44
71082;SHT31;58740;50.672;18.690;2022-11-12T18:09:50;6.68;77.60
71082;SHT31;58740;50.672;18.690;2022-11-12T18:12:18;6.66;77.50
71082;SHT31;58740;50.672;18.690;2022-11-12T18:14:45;6.65;77.31
71082;SHT31;58740;50.672;18.690;2022-11-12T18:17:13;6.60;77.10
71082;SHT31;58740;50.672;18.690;2022-11-12T18:19:41;6.54;77.15
71082;SHT31;58740;50.672;18.690;2022-11-12T18:22:09;6.47;77.26
71082;SHT31;58740;50.672;18.690;2022-11-12T18:24:41;6.42;77.23
71082;SHT31;58740;50.672;18.690;2022-11-12T18:27:09;6.37;77.24
71082;SHT31;58740;50.672;18.690;2022-11-12T18:29:36;6.32;77.23
71082;SHT31;58740;50.672;18.690;2022-11-12T18:32:06;6.27;77.36